Time;durP1;ratioP1;P1;durP2;ratioP2;P2;SDS_P1;SDS_P2;PMS_P1;PMS_P2;Temp;Humidity;BMP_temperature;BMP_pressure;BME280_temperature;BME280_humidity;BME280_pressure;Samples;Min_cycle;Max_cycle;Signal;HPM_P1;HPM_P2
2023/04/01 00:02:35;;;;;;;5.85;3.38;;;;;;;;;;10377018;28;20036;-59
2023/04/01 00:07:37;;;;;;;4.15;3.10;;;;;;;;;;10368765;28;20107;-60
2023/04/01 00:12:39;;;;;;;4.20;3.35;;;;;;;;;;10379810;28;20108;-59
2023/04/01 00:17:40;;;;;;;3.95;3.30;;;;;;;;;;10379449;28;20105;-60
2023/04/01 00:22:41;;;;;;;4.85;3.22;;;;;;;;;;10379528;28;20041;-60
2023/04/01 00:27:41;;;;;;;12.00;3.30;;;;;;;;;;10379480;28;20160;-60
2023/04/01 00:32:43;;;;;;;3.92;2.72;;;;;;;;;;10372611;28;20117;-59
2023/04/01 00:37:44;;;;;;;5.88;3.35;;;;;;;;;;10354819;28;20025;-60
2023/04/01 00:42:45;;;;;;;5.10;3.08;;;;;;;;;;10372181;28;20037;-60
2023/04/01 00:47:45;;;;;;;6.97;3.35;;;;;;;;;;10366979;28;20069;-59
2023/04/01 00:52:46;;;;;;;5.22;3.42;;;;;;;;;;10389097;28;20042;-60
2023/04/01 00:57:50;;;;;;;4.85;3.20;;;;;;;;;;10366170;28;20030;-59
2023/04/01 01:02:51;;;;;;;3.55;3.08;;;;;;;;;;10382924;28;20041;-59
2023/04/01 01:08:16;;;;;;;5.47;3.38;;;;;;;;;;10364578;28;20026;-59
2023/04/01 01:13:43;;;;;;;4.32;3.20;;;;;;;;;;10367053;28;20025;-60
2023/04/01 01:18:53;;;;;;;5.43;3.20;;;;;;;;;;10388219;28;20091;-60
2023/04/01 01:24:17;;;;;;;5.85;3.42;;;;;;;;;;10401294;28;20037;-59
2023/04/01 01:29:20;;;;;;;3.30;3.00;;;;;;;;;;10386753;28;20029;-60
2023/04/01 01:34:39;;;;;;;6.20;2.97;;;;;;;;;;10392292;28;20464;-59
2023/04/01 01:39:43;;;;;;;5.10;3.13;;;;;;;;;;10370946;28;20022;-59
2023/04/01 01:44:46;;;;;;;3.72;3.35;;;;;;;;;;10370974;28;20489;-60
2023/04/01 01:49:47;;;;;;;4.13;3.15;;;;;;;;;;10371071;28;20156;-60
2023/04/01 01:54:54;;;;;;;3.40;3.10;;;;;;;;;;10359679;28;20053;-58
2023/04/01 02:00:00;;;;;;;4.25;3.00;;;;;;;;;;10370435;28;20053;-58
2023/04/01 02:05:04;;;;;;;4.22;3.10;;;;;;;;;;10375469;28;20044;-60
2023/04/01 02:10:06;;;;;;;3.28;2.97;;;;;;;;;;10363434;28;20038;-59
2023/04/01 02:15:11;;;;;;;5.82;3.38;;;;;;;;;;10363291;28;20030;-60
2023/04/01 02:20:20;;;;;;;4.25;3.15;;;;;;;;;;10348818;28;20096;-59
2023/04/01 02:25:29;;;;;;;4.40;3.38;;;;;;;;;;10345207;28;20030;-59
2023/04/01 02:30:34;;;;;;;3.55;3.17;;;;;;;;;;10357430;28;20501;-59
2023/04/01 02:35:37;;;;;;;5.53;3.30;;;;;;;;;;10333855;28;20422;-58
2023/04/01 02:40:48;;;;;;;4.45;3.20;;;;;;;;;;10369605;28;20034;-60
2023/04/01 02:45:48;;;;;;;4.10;3.42;;;;;;;;;;10346016;28;20105;-59
2023/04/01 02:50:49;;;;;;;3.97;3.30;;;;;;;;;;10353092;28;20026;-59
2023/04/01 02:55:51;;;;;;;5.90;3.30;;;;;;;;;;10358008;28;20498;-59
2023/04/01 03:00:52;;;;;;;3.42;3.10;;;;;;;;;;10369684;28;20121;-59
2023/04/01 03:05:55;;;;;;;3.60;3.10;;;;;;;;;;10370420;28;20026;-59
2023/04/01 03:10:55;;;;;;;5.28;3.20;;;;;;;;;;10356783;28;20025;-58
2023/04/01 03:15:56;;;;;;;6.15;2.97;;;;;;;;;;10369424;28;20088;-57
2023/04/01 03:20:57;;;;;;;3.55;2.92;;;;;;;;;;10347486;28;20026;-60
2023/04/01 03:25:57;;;;;;;3.28;2.97;;;;;;;;;;10341088;28;20022;-60
2023/04/01 03:30:58;;;;;;;3.60;2.95;;;;;;;;;;10348842;28;20030;-59
2023/04/01 03:35:58;;;;;;;3.58;2.85;;;;;;;;;;10331171;28;20080;-59
2023/04/01 03:40:59;;;;;;;3.70;2.83;;;;;;;;;;10356703;28;20108;-59
2023/04/01 03:46:00;;;;;;;4.13;3.10;;;;;;;;;;10348854;28;20363;-59
2023/04/01 03:51:00;;;;;;;5.63;2.80;;;;;;;;;;10370542;28;20393;-60
2023/04/01 03:56:06;;;;;;;3.33;2.83;;;;;;;;;;10343367;28;20501;-58
2023/04/01 04:01:21;;;;;;;3.53;2.78;;;;;;;;;;10343021;28;20541;-60
2023/04/01 04:06:23;;;;;;;3.30;3.00;;;;;;;;;;10344063;28;20057;-60
2023/04/01 04:11:23;;;;;;;3.15;2.65;;;;;;;;;;10354193;28;20036;-59
2023/04/01 04:16:24;;;;;;;3.40;3.10;;;;;;;;;;10367351;28;20540;-59
2023/04/01 04:21:25;;;;;;;3.65;3.08;;;;;;;;;;10342620;28;20034;-60
2023/04/01 04:26:26;;;;;;;3.55;2.85;;;;;;;;;;10354294;28;20049;-60
2023/04/01 04:31:27;;;;;;;3.08;2.63;;;;;;;;;;10342662;28;20166;-60
2023/04/01 04:36:28;;;;;;;5.25;2.70;;;;;;;;;;10380511;28;20181;-60
2023/04/01 04:41:29;;;;;;;3.50;3.00;;;;;;;;;;10354465;28;20292;-58
2023/04/01 04:46:29;;;;;;;4.47;2.78;;;;;;;;;;10340889;28;20026;-60
2023/04/01 04:51:33;;;;;;;3.65;2.72;;;;;;;;;;10365898;28;20030;-60
2023/04/01 04:56:35;;;;;;;2.60;2.40;;;;;;;;;;10348311;28;20449;-60
2023/04/01 05:01:36;;;;;;;4.22;2.72;;;;;;;;;;10341474;28;20030;-60
2023/04/01 05:06:36;;;;;;;3.55;2.85;;;;;;;;;;10327965;28;20482;-60
2023/04/01 05:11:37;;;;;;;3.08;2.78;;;;;;;;;;10329145;28;20511;-60
2023/04/01 05:16:37;;;;;;;3.53;2.95;;;;;;;;;;10350303;28;20157;-60
2023/04/01 05:21:38;;;;;;;2.53;2.33;;;;;;;;;;10365001;28;20033;-60
2023/04/01 05:26:39;;;;;;;3.47;2.70;;;;;;;;;;10357016;28;20177;-60
2023/04/01 05:31:39;;;;;;;2.80;2.45;;;;;;;;;;10340798;28;20039;-60
2023/04/01 05:36:41;;;;;;;2.72;2.28;;;;;;;;;;10328168;28;20027;-61
2023/04/01 05:41:42;;;;;;;3.05;2.75;;;;;;;;;;10340778;28;20108;-60
2023/04/01 05:46:42;;;;;;;11.68;2.83;;;;;;;;;;10347369;28;20332;-60
2023/04/01 05:51:43;;;;;;;2.42;2.22;;;;;;;;;;10337852;28;20398;-58
2023/04/01 05:56:45;;;;;;;2.88;2.50;;;;;;;;;;10377790;28;20052;-60
2023/04/01 06:01:45;;;;;;;2.80;2.60;;;;;;;;;;10352386;28;20039;-60
2023/04/01 06:06:46;;;;;;;2.70;2.50;;;;;;;;;;10371808;28;20029;-60
2023/04/01 06:11:55;;;;;;;3.60;2.80;;;;;;;;;;10371757;28;20382;-58
2023/04/01 06:17:26;;;;;;;2.40;2.20;;;;;;;;;;10371162;28;20044;-59
2023/04/01 06:23:02;;;;;;;3.53;2.33;;;;;;;;;;10370408;28;20041;-56
2023/04/01 06:28:41;;;;;;;3.05;2.40;;;;;;;;;;10363020;28;20057;-55
2023/04/01 06:34:14;;;;;;;7.00;2.53;;;;;;;;;;10337544;28;20030;-58
2023/04/01 06:39:51;;;;;;;3.10;2.55;;;;;;;;;;10326936;28;20343;-61
2023/04/01 06:45:15;;;;;;;3.17;2.40;;;;;;;;;;10360528;28;20084;-59
2023/04/01 06:51:04;;;;;;;2.63;2.42;;;;;;;;;;10357964;28;20030;-60
2023/04/01 06:56:26;;;;;;;;;;;;;;;;;;10358096;28;20042;-59
2023/04/01 07:01:42;;;;;;;5.22;2.58;;;;;;;;;;10347506;28;19917;-60
2023/04/01 07:06:59;;;;;;;7.65;2.67;;;;;;;;;;10361339;28;20520;-58
2023/04/01 07:12:15;;;;;;;2.67;2.42;;;;;;;;;;10369632;28;20028;-59
2023/04/01 07:17:26;;;;;;;3.42;2.53;;;;;;;;;;10378400;28;20040;-58
2023/04/01 07:22:44;;;;;;;7.97;3.40;;;;;;;;;;10370837;28;20056;-57
2023/04/01 07:27:46;;;;;;;18.20;3.70;;;;;;;;;;10382689;28;20030;-62
2023/04/01 07:33:37;;;;;;;12.73;7.07;;;;;;;;;;10368136;28;20033;-63
2023/04/01 07:39:22;;;;;;;24.52;11.05;;;;;;;;;;10364104;28;20022;-61
2023/04/01 07:44:50;;;;;;;19.42;12.23;;;;;;;;;;10377335;28;20057;-61
2023/04/01 07:50:24;;;;;;;21.38;11.98;;;;;;;;;;10350252;28;20046;-59
2023/04/01 07:55:39;;;;;;;31.75;11.73;;;;;;;;;;10357294;28;20491;-59
2023/04/01 08:01:12;;;;;;;20.13;10.90;;;;;;;;;;10357442;28;20061;-59
2023/04/01 08:06:25;;;;;;;15.48;9.55;;;;;;;;;;10343289;28;20034;-59
2023/04/01 08:11:48;;;;;;;15.45;8.55;;;;;;;;;;10352635;28;20034;-60
2023/04/01 08:17:23;;;;;;;18.75;9.32;;;;;;;;;;10337139;28;20162;-59
2023/04/01 08:22:34;;;;;;;19.02;8.82;;;;;;;;;;10368249;28;20036;-60
2023/04/01 08:27:45;;;;;;;13.20;7.80;;;;;;;;;;10367260;28;20026;-60
2023/04/01 08:32:56;;;;;;;16.13;8.55;;;;;;;;;;10348463;28;20097;-60
2023/04/01 08:38:05;;;;;;;16.02;7.65;;;;;;;;;;10340143;28;20018;-60
2023/04/01 08:43:42;;;;;;;17.50;8.00;;;;;;;;;;10380547;28;20519;-59
2023/04/01 08:49:06;;;;;;;13.85;8.18;;;;;;;;;;10383175;28;20066;-60
2023/04/01 08:54:31;;;;;;;15.15;7.25;;;;;;;;;;10374042;28;20076;-60
2023/04/01 08:59:46;;;;;;;16.40;8.00;;;;;;;;;;10366018;28;20081;-61
2023/04/01 09:05:14;;;;;;;24.20;8.15;;;;;;;;;;10385113;28;20033;-59
2023/04/01 09:11:04;;;;;;;18.37;7.73;;;;;;;;;;10380431;28;20026;-59
2023/04/01 09:16:56;;;;;;;15.68;6.57;;;;;;;;;;10350881;28;20670;-59
2023/04/01 09:22:28;;;;;;;11.32;6.40;;;;;;;;;;10356610;28;20042;-59
2023/04/01 09:28:16;;;;;;;12.60;6.13;;;;;;;;;;10365862;28;20397;-59
2023/04/01 09:34:12;;;;;;;16.55;6.07;;;;;;;;;;10343036;28;20401;-59
2023/04/01 09:39:35;;;;;;;13.52;5.88;;;;;;;;;;10374019;28;20026;-60
2023/04/01 09:45:05;;;;;;;12.25;5.95;;;;;;;;;;10369745;28;20045;-59
2023/04/01 09:50:40;;;;;;;6.63;4.45;;;;;;;;;;10365711;28;20034;-60
2023/04/01 09:56:12;;;;;;;10.32;5.03;;;;;;;;;;10386055;28;20050;-61
2023/04/01 10:01:33;;;;;;;7.05;4.93;;;;;;;;;;10353549;28;20038;-60
2023/04/01 10:07:20;;;;;;;7.35;5.03;;;;;;;;;;10369358;28;20113;-60
2023/04/01 10:13:13;;;;;;;10.18;4.57;;;;;;;;;;10372003;28;20034;-60
2023/04/01 10:18:44;;;;;;;8.02;5.20;;;;;;;;;;10349506;28;20026;-60
2023/04/01 10:24:00;;;;;;;7.13;4.72;;;;;;;;;;10343964;28;20049;-61
2023/04/01 10:29:23;;;;;;;9.68;5.13;;;;;;;;;;10365849;28;20025;-60
2023/04/01 10:34:48;;;;;;;10.85;4.88;;;;;;;;;;10376537;28;20033;-60
2023/04/01 10:40:19;;;;;;;11.68;4.35;;;;;;;;;;10371913;28;20041;-61
2023/04/01 10:45:50;;;;;;;8.32;3.85;;;;;;;;;;10370468;28;20058;-60
2023/04/01 10:51:20;;;;;;;8.75;4.38;;;;;;;;;;10370291;28;20026;-60
2023/04/01 10:56:50;;;;;;;11.85;4.53;;;;;;;;;;10369013;28;20046;-60
2023/04/01 11:02:35;;;;;;;9.65;4.53;;;;;;;;;;10363377;28;20030;-60
2023/04/01 11:08:25;;;;;;;9.30;5.05;;;;;;;;;;10358201;28;20033;-59
2023/04/01 11:14:06;;;;;;;8.18;5.00;;;;;;;;;;10330616;28;20041;-60
2023/04/01 11:19:33;;;;;;;8.00;4.10;;;;;;;;;;10367526;28;20116;-59
2023/04/01 11:24:46;;;;;;;7.88;4.40;;;;;;;;;;10371136;28;20497;-59
2023/04/01 11:30:30;;;;;;;6.72;4.20;;;;;;;;;;10366907;28;20452;-60
2023/04/01 11:35:47;;;;;;;7.88;4.22;;;;;;;;;;10368544;28;20022;-61
2023/04/01 11:40:59;;;;;;;6.15;3.65;;;;;;;;;;10366062;28;20481;-61
2023/04/01 11:46:23;;;;;;;9.35;4.07;;;;;;;;;;10379075;28;20524;-61
2023/04/01 11:51:48;;;;;;;9.57;4.18;;;;;;;;;;10353230;28;20189;-60
2023/04/01 11:57:57;;;;;;;4.85;3.70;;;;;;;;;;10351515;28;20034;-61
2023/04/01 12:03:19;;;;;;;;;;;;;;;;;;10320695;28;20237;-61
2023/04/01 12:08:54;;;;;;;6.57;3.78;;;;;;;;;;10367703;28;20289;-61
2023/04/01 12:14:14;;;;;;;9.60;4.00;;;;;;;;;;10366331;28;20026;-61
2023/04/01 12:19:46;;;;;;;16.33;4.20;;;;;;;;;;10366125;28;20165;-62
2023/04/01 12:25:18;;;;;;;9.23;3.70;;;;;;;;;;10364724;28;20041;-62
2023/04/01 12:30:41;;;;;;;13.07;3.60;;;;;;;;;;10364339;28;20497;-62
2023/04/01 12:36:16;;;;;;;5.35;3.42;;;;;;;;;;10367759;28;20022;-61
2023/04/01 12:41:49;;;;;;;7.07;3.17;;;;;;;;;;10357244;28;20049;-62
2023/04/01 12:47:18;;;;;;;10.32;4.20;;;;;;;;;;10385974;28;20497;-61
2023/04/01 12:52:42;;;;;;;6.55;3.65;;;;;;;;;;10340852;28;20074;-59
2023/04/01 12:58:10;;;;;;;3.42;2.80;;;;;;;;;;10365681;28;20036;-59
2023/04/01 13:03:30;;;;;;;5.70;3.70;;;;;;;;;;10343307;28;20033;-61
2023/04/01 13:09:18;;;;;;;5.18;3.50;;;;;;;;;;10353649;28;20057;-59
2023/04/01 13:14:36;;;;;;;16.33;4.10;;;;;;;;;;10285228;28;20494;-59
2023/04/01 13:20:07;;;;;;;36.53;4.43;;;;;;;;;;10288708;28;20119;-60
2023/04/01 13:26:01;;;;;;;9.48;3.35;;;;;;;;;;10259038;28;20087;-60
2023/04/01 13:31:21;;;;;;;19.77;3.88;;;;;;;;;;10250896;28;20047;-60
2023/04/01 13:36:47;;;;;;;8.68;3.75;;;;;;;;;;10294217;28;20062;-60
2023/04/01 13:42:24;;;;;;;14.23;4.10;;;;;;;;;;10290418;28;20042;-59
2023/04/01 13:47:40;;;;;;;8.87;4.10;;;;;;;;;;10347713;28;20029;-61
2023/04/01 13:53:36;;;;;;;4.85;3.75;;;;;;;;;;10359998;28;20046;-61
2023/04/01 13:58:57;;;;;;;13.48;3.95;;;;;;;;;;10371887;28;20034;-60
2023/04/01 14:04:23;;;;;;;10.18;3.80;;;;;;;;;;10371370;28;20026;-60
2023/04/01 14:09:48;;;;;;;9.35;3.38;;;;;;;;;;10352466;28;20038;-59
2023/04/01 14:16:05;;;;;;;5.18;3.30;;;;;;;;;;10369623;28;20158;-59
2023/04/01 14:21:37;;;;;;;6.28;3.20;;;;;;;;;;10285437;28;20081;-59
2023/04/01 14:27:12;;;;;;;6.07;3.40;;;;;;;;;;10339929;28;20034;-59
2023/04/01 14:32:34;;;;;;;10.55;3.40;;;;;;;;;;10344023;28;20374;-60
2023/04/01 14:37:56;;;;;;;9.05;3.50;;;;;;;;;;10348186;28;20030;-59
2023/04/01 14:43:38;;;;;;;4.10;3.30;;;;;;;;;;10357317;28;20064;-60
2023/04/01 14:49:04;;;;;;;5.95;3.15;;;;;;;;;;10355147;28;20384;-60
2023/04/01 14:54:11;;;;;;;5.10;3.22;;;;;;;;;;10348210;28;20043;-60
2023/04/01 14:59:20;;;;;;;6.43;3.42;;;;;;;;;;10348456;28;20405;-60
2023/04/01 15:04:24;;;;;;;6.28;2.60;;;;;;;;;;10361653;28;20110;-60
2023/04/01 15:09:43;;;;;;;6.00;3.38;;;;;;;;;;10369430;28;20112;-59
2023/04/01 15:14:58;;;;;;;5.57;3.00;;;;;;;;;;10359095;28;20037;-59
2023/04/01 15:20:25;;;;;;;5.65;3.47;;;;;;;;;;10354649;28;20109;-59
2023/04/01 15:26:06;;;;;;;5.43;3.30;;;;;;;;;;10358973;28;20033;-59
2023/04/01 15:31:31;;;;;;;3.47;3.00;;;;;;;;;;10345821;28;20034;-59
2023/04/01 15:36:45;;;;;;;6.00;3.20;;;;;;;;;;10355016;28;20040;-59
2023/04/01 15:42:30;;;;;;;6.95;3.05;;;;;;;;;;10338498;28;20041;-59
2023/04/01 15:47:44;;;;;;;3.42;2.88;;;;;;;;;;10381949;28;20430;-59
2023/04/01 15:53:17;;;;;;;2.80;2.58;;;;;;;;;;10363417;28;20405;-59
2023/04/01 15:58:56;;;;;;;5.47;3.10;;;;;;;;;;10347648;28;20389;-59
2023/04/01 16:04:34;;;;;;;5.35;2.95;;;;;;;;;;10363568;28;20049;-60
2023/04/01 16:09:55;;;;;;;3.80;3.30;;;;;;;;;;10361436;28;20030;-59
2023/04/01 16:15:17;;;;;;;5.18;3.03;;;;;;;;;;10366714;28;20034;-60
2023/04/01 16:20:26;;;;;;;5.75;2.95;;;;;;;;;;10352751;28;20030;-61
2023/04/01 16:25:52;;;;;;;4.75;2.92;;;;;;;;;;10366358;28;20048;-61
2023/04/01 16:31:14;;;;;;;5.20;3.53;;;;;;;;;;10370914;28;20034;-61
2023/04/01 16:36:44;;;;;;;3.97;2.90;;;;;;;;;;10357944;28;20034;-60
2023/04/01 16:42:07;;;;;;;5.50;3.17;;;;;;;;;;10378649;28;20078;-62
2023/04/01 16:47:14;;;;;;;4.32;2.72;;;;;;;;;;10391688;28;20105;-62
2023/04/01 16:52:29;;;;;;;3.85;3.13;;;;;;;;;;10364810;28;20082;-62
2023/04/01 16:57:59;;;;;;;4.95;3.08;;;;;;;;;;10361084;28;20526;-62
2023/04/01 17:03:18;;;;;;;4.55;2.95;;;;;;;;;;10363574;28;20042;-62
2023/04/01 17:08:43;;;;;;;4.65;2.75;;;;;;;;;;10402797;28;20065;-60
2023/04/01 17:14:14;;;;;;;4.95;2.90;;;;;;;;;;10389339;28;20053;-60
2023/04/01 17:19:59;;;;;;;4.07;2.90;;;;;;;;;;10383780;28;20400;-60
2023/04/01 17:25:43;;;;;;;3.70;2.67;;;;;;;;;;10393802;28;20481;-60
2023/04/01 17:31:10;;;;;;;3.25;2.78;;;;;;;;;;10363020;28;20116;-62
2023/04/01 17:36:22;;;;;;;4.20;2.95;;;;;;;;;;10358921;28;20038;-60
2023/04/01 17:41:51;;;;;;;4.18;2.95;;;;;;;;;;10375441;28;20030;-60
2023/04/01 17:47:22;;;;;;;3.78;2.88;;;;;;;;;;10343962;28;20065;-61
2023/04/01 17:52:57;;;;;;;3.92;3.00;;;;;;;;;;10333199;28;20393;-60
2023/04/01 17:58:19;;;;;;;7.75;3.22;;;;;;;;;;10364871;28;20308;-61
2023/04/01 18:04:06;;;;;;;4.97;3.10;;;;;;;;;;10363132;28;20286;-61
2023/04/01 18:09:37;;;;;;;5.75;3.10;;;;;;;;;;10342182;28;20042;-61
2023/04/01 18:15:19;;;;;;;15.00;3.60;;;;;;;;;;10361393;28;20038;-60
2023/04/01 18:20:36;;;;;;;12.15;3.97;;;;;;;;;;10369043;28;20029;-61
2023/04/01 18:25:50;;;;;;;10.63;4.68;;;;;;;;;;10363595;28;20478;-60
2023/04/01 18:31:10;;;;;;;16.30;4.50;;;;;;;;;;10375667;28;20026;-60
2023/04/01 18:36:39;;;;;;;8.85;3.70;;;;;;;;;;10374613;28;20022;-60
2023/04/01 18:42:31;;;;;;;11.15;4.10;;;;;;;;;;10379119;28;20109;-60
2023/04/01 18:48:09;;;;;;;17.52;5.07;;;;;;;;;;10348587;28;20100;-60
2023/04/01 18:53:22;;;;;;;16.52;5.72;;;;;;;;;;10345229;28;20046;-60
2023/04/01 18:58:45;;;;;;;19.25;5.18;;;;;;;;;;10350805;28;20041;-60
2023/04/01 19:04:11;;;;;;;25.00;4.95;;;;;;;;;;10344733;28;20373;-60
2023/04/01 19:09:49;;;;;;;22.17;5.25;;;;;;;;;;10365566;28;20061;-59
2023/04/01 19:14:59;;;;;;;18.02;4.88;;;;;;;;;;10293621;28;20133;-59
2023/04/01 19:20:10;;;;;;;13.55;4.53;;;;;;;;;;10290028;28;20486;-59
2023/04/01 19:25:31;;;;;;;12.80;4.88;;;;;;;;;;10275855;28;20026;-59
2023/04/01 19:31:02;;;;;;;14.95;5.03;;;;;;;;;;10281008;28;20494;-59
2023/04/01 19:36:36;;;;;;;12.88;5.10;;;;;;;;;;10284150;28;20097;-60
2023/04/01 19:41:52;;;;;;;11.98;4.30;;;;;;;;;;10272552;28;20054;-60
2023/04/01 19:47:23;;;;;;;12.70;4.30;;;;;;;;;;10305460;28;20133;-60
2023/04/01 19:52:33;;;;;;;11.23;4.38;;;;;;;;;;10366310;28;20042;-60
2023/04/01 19:57:52;;;;;;;10.38;4.03;;;;;;;;;;10359942;28;20089;-60
2023/04/01 20:03:22;;;;;;;9.85;4.50;;;;;;;;;;10355866;28;20412;-59
2023/04/01 20:09:10;;;;;;;9.48;4.25;;;;;;;;;;10338520;28;20416;-59
2023/04/01 20:14:43;;;;;;;8.60;4.20;;;;;;;;;;10363531;28;20489;-60
2023/04/01 20:20:08;;;;;;;14.80;4.30;;;;;;;;;;10348354;28;20037;-60
2023/04/01 20:25:43;;;;;;;10.00;4.72;;;;;;;;;;10353514;28;20027;-60
2023/04/01 20:31:09;;;;;;;12.63;4.18;;;;;;;;;;10342193;28;20018;-60
2023/04/01 20:36:15;;;;;;;9.35;4.38;;;;;;;;;;10342539;28;20125;-60
2023/04/01 20:41:28;;;;;;;7.63;3.63;;;;;;;;;;10341823;28;20036;-60
2023/04/01 20:46:52;;;;;;;7.07;4.10;;;;;;;;;;10367053;28;20025;-61
2023/04/01 20:52:10;;;;;;;8.00;3.97;;;;;;;;;;10341919;28;20032;-60
2023/04/01 20:57:32;;;;;;;;;;;;;;;;;;10342125;28;20042;-60
2023/04/01 21:02:47;;;;;;;8.07;4.32;;;;;;;;;;10352263;28;19913;-59
2023/04/01 21:08:06;;;;;;;12.40;4.15;;;;;;;;;;10353483;28;20026;-60
2023/04/01 21:13:15;;;;;;;5.35;3.50;;;;;;;;;;10340698;28;20048;-58
2023/04/01 21:18:39;;;;;;;7.63;4.70;;;;;;;;;;10378245;28;20030;-59
2023/04/01 21:24:21;;;;;;;13.05;4.05;;;;;;;;;;10343931;28;20080;-59
2023/04/01 21:30:15;;;;;;;7.57;3.85;;;;;;;;;;10340422;28;20026;-59
2023/04/01 21:35:49;;;;;;;9.32;3.90;;;;;;;;;;10332568;28;20053;-59
2023/04/01 21:41:00;;;;;;;10.93;4.60;;;;;;;;;;10362869;28;20077;-59
2023/04/01 21:46:26;;;;;;;6.45;4.00;;;;;;;;;;10373372;28;20037;-59
2023/04/01 21:52:19;;;;;;;11.80;4.28;;;;;;;;;;10356708;28;20476;-59
2023/04/01 21:57:44;;;;;;;11.20;4.35;;;;;;;;;;10349412;28;20137;-59
2023/04/01 22:03:17;;;;;;;17.10;4.00;;;;;;;;;;10371587;28;20056;-60
2023/04/01 22:08:54;;;;;;;9.68;4.10;;;;;;;;;;10364817;28;20038;-59
2023/04/01 22:14:31;;;;;;;16.48;4.13;;;;;;;;;;10371590;28;20038;-60
2023/04/01 22:20:11;;;;;;;8.02;3.72;;;;;;;;;;10360706;28;20119;-60
2023/04/01 22:25:22;;;;;;;11.32;4.07;;;;;;;;;;10356886;28;20394;-60
2023/04/01 22:30:25;;;;;;;10.68;4.07;;;;;;;;;;10369310;28;20037;-60
2023/04/01 22:35:49;;;;;;;11.50;4.80;;;;;;;;;;10370998;28;20024;-59
2023/04/01 22:41:27;;;;;;;7.10;3.83;;;;;;;;;;10369756;28;20033;-60
2023/04/01 22:47:06;;;;;;;9.33;3.77;;;;;;;;;;10366885;28;20022;-60
2023/04/01 22:52:37;;;;;;;10.75;4.18;;;;;;;;;;10361563;28;20042;-60
2023/04/01 22:57:50;;;;;;;12.85;4.28;;;;;;;;;;10364221;28;20076;-60
2023/04/01 23:03:17;;;;;;;6.80;3.88;;;;;;;;;;10354153;28;20026;-60
2023/04/01 23:09:01;;;;;;;7.20;4.18;;;;;;;;;;10378702;28;20042;-61
2023/04/01 23:14:20;;;;;;;7.97;3.95;;;;;;;;;;10365229;28;20061;-60
2023/04/01 23:19:43;;;;;;;11.55;4.75;;;;;;;;;;10368476;28;20033;-60
2023/04/01 23:25:05;;;;;;;9.57;4.10;;;;;;;;;;10364485;28;20112;-60
2023/04/01 23:30:38;;;;;;;8.95;3.72;;;;;;;;;;10379984;28;20052;-60
2023/04/01 23:35:54;;;;;;;7.80;3.42;;;;;;;;;;10364039;28;20485;-60
2023/04/01 23:40:55;;;;;;;10.10;4.05;;;;;;;;;;10368784;28;20084;-60
2023/04/01 23:46:00;;;;;;;7.75;3.60;;;;;;;;;;10365044;28;20049;-59
2023/04/01 23:51:01;;;;;;;11.00;4.18;;;;;;;;;;10366898;28;20034;-60
2023/04/01 23:56:03;;;;;;;8.18;3.60;;;;;;;;;;10359752;28;20037;-59
